sensor_id;sensor_type;location;lat;lon;timestamp;pressure;altitude;pressure_sealevel;temperature;humidity
59831;BME280;45711;50.108;13.712;2023-04-23T00:00:55;97203.28;;;10.56;76.13
59831;BME280;45711;50.108;13.712;2023-04-23T00:03:23;97201.78;;;10.50;76.13
59831;BME280;45711;50.108;13.712;2023-04-23T00:05:51;97198.09;;;10.32;76.20
59831;BME280;45711;50.108;13.712;2023-04-23T00:08:22;97202.72;;;10.26;76.00
59831;BME280;45711;50.108;13.712;2023-04-23T00:10:48;97201.00;;;10.49;75.08
59831;BME280;45711;50.108;13.712;2023-04-23T00:13:14;97201.81;;;10.64;75.91
59831;BME280;45711;50.108;13.712;2023-04-23T00:15:40;97202.78;;;11.23;74.94
59831;BME280;45711;50.108;13.712;2023-04-23T00:18:06;97204.00;;;10.75;74.96
59831;BME280;45711;50.108;13.712;2023-04-23T00:20:32;97195.16;;;10.15;77.05
59831;BME280;45711;50.108;13.712;2023-04-23T00:22:59;97198.97;;;10.08;78.43
59831;BME280;45711;50.108;13.712;2023-04-23T00:25:27;97197.59;;;10.11;78.11
59831;BME280;45711;50.108;13.712;2023-04-23T00:27:52;97198.59;;;10.15;78.54
59831;BME280;45711;50.108;13.712;2023-04-23T00:30:18;97196.16;;;10.00;79.31
59831;BME280;45711;50.108;13.712;2023-04-23T00:32:44;97205.97;;;10.04;79.06
59831;BME280;45711;50.108;13.712;2023-04-23T00:35:10;97193.56;;;9.95;78.34
59831;BME280;45711;50.108;13.712;2023-04-23T00:37:35;97207.44;;;9.97;78.41
59831;BME280;45711;50.108;13.712;2023-04-23T00:40:01;97200.94;;;10.03;78.46
59831;BME280;45711;50.108;13.712;2023-04-23T00:42:30;97193.00;;;9.98;78.73
59831;BME280;45711;50.108;13.712;2023-04-23T00:44:56;97195.06;;;10.01;78.13
59831;BME280;45711;50.108;13.712;2023-04-23T00:47:22;97203.84;;;9.88;79.36
59831;BME280;45711;50.108;13.712;2023-04-23T00:49:49;97188.03;;;9.72;79.85
59831;BME280;45711;50.108;13.712;2023-04-23T00:52:15;97188.38;;;10.03;78.36
59831;BME280;45711;50.108;13.712;2023-04-23T00:54:41;97197.56;;;9.78;80.65
59831;BME280;45711;50.108;13.712;2023-04-23T00:57:09;97190.59;;;9.96;79.93
59831;BME280;45711;50.108;13.712;2023-04-23T00:59:36;97185.72;;;10.17;79.07
59831;BME280;45711;50.108;13.712;2023-04-23T01:02:02;97193.25;;;10.48;77.19
59831;BME280;45711;50.108;13.712;2023-04-23T01:04:29;97198.44;;;10.58;77.28
59831;BME280;45711;50.108;13.712;2023-04-23T01:06:55;97182.06;;;10.60;77.23
59831;BME280;45711;50.108;13.712;2023-04-23T01:09:22;97192.97;;;10.49;77.37
59831;BME280;45711;50.108;13.712;2023-04-23T01:11:50;97183.94;;;10.45;77.71
59831;BME280;45711;50.108;13.712;2023-04-23T01:14:16;97188.31;;;10.41;77.89
59831;BME280;45711;50.108;13.712;2023-04-23T01:16:43;97183.03;;;10.36;78.53
59831;BME280;45711;50.108;13.712;2023-04-23T01:19:09;97186.31;;;10.47;78.49
59831;BME280;45711;50.108;13.712;2023-04-23T01:21:36;97190.75;;;10.38;79.04
59831;BME280;45711;50.108;13.712;2023-04-23T01:24:04;97176.19;;;10.44;79.45
59831;BME280;45711;50.108;13.712;2023-04-23T01:26:30;97171.34;;;10.32;79.19
59831;BME280;45711;50.108;13.712;2023-04-23T01:28:56;97169.19;;;10.48;78.19
59831;BME280;45711;50.108;13.712;2023-04-23T01:31:25;97169.69;;;10.36;80.31
59831;BME280;45711;50.108;13.712;2023-04-23T01:33:51;97170.75;;;10.49;79.19
59831;BME280;45711;50.108;13.712;2023-04-23T01:36:18;97174.06;;;10.73;79.42
59831;BME280;45711;50.108;13.712;2023-04-23T01:38:48;97169.78;;;10.86;77.94
59831;BME280;45711;50.108;13.712;2023-04-23T01:41:16;97171.47;;;10.96;77.48
59831;BME280;45711;50.108;13.712;2023-04-23T01:43:41;97178.81;;;11.04;76.04
59831;BME280;45711;50.108;13.712;2023-04-23T01:46:10;97179.34;;;11.42;76.03
59831;BME280;45711;50.108;13.712;2023-04-23T01:48:37;97193.06;;;11.41;77.17
59831;BME280;45711;50.108;13.712;2023-04-23T01:51:03;97195.97;;;11.03;80.03
59831;BME280;45711;50.108;13.712;2023-04-23T01:53:29;97189.63;;;10.85;81.43
59831;BME280;45711;50.108;13.712;2023-04-23T01:55:55;97198.56;;;10.80;83.34
59831;BME280;45711;50.108;13.712;2023-04-23T01:58:24;97199.22;;;10.45;84.72
59831;BME280;45711;50.108;13.712;2023-04-23T02:00:50;97204.03;;;10.43;86.43
59831;BME280;45711;50.108;13.712;2023-04-23T02:03:16;97197.03;;;10.47;86.85
59831;BME280;45711;50.108;13.712;2023-04-23T02:05:44;97194.25;;;10.52;86.20
59831;BME280;45711;50.108;13.712;2023-04-23T02:08:10;97188.75;;;10.29;89.29
59831;BME280;45711;50.108;13.712;2023-04-23T02:10:36;97187.56;;;10.36;90.71
59831;BME280;45711;50.108;13.712;2023-04-23T02:13:02;97184.22;;;10.30;91.00
59831;BME280;45711;50.108;13.712;2023-04-23T02:15:29;97173.63;;;10.52;90.10
59831;BME280;45711;50.108;13.712;2023-04-23T02:18:02;97158.09;;;10.68;89.16
59831;BME280;45711;50.108;13.712;2023-04-23T02:20:28;97162.88;;;10.85;89.17
59831;BME280;45711;50.108;13.712;2023-04-23T02:22:54;97180.81;;;11.48;82.86
59831;BME280;45711;50.108;13.712;2023-04-23T02:25:20;97195.16;;;12.02;78.90
59831;BME280;45711;50.108;13.712;2023-04-23T02:27:46;97198.19;;;11.87;80.29
59831;BME280;45711;50.108;13.712;2023-04-23T02:30:12;97192.78;;;11.01;87.72
59831;BME280;45711;50.108;13.712;2023-04-23T02:32:42;97166.03;;;10.60;90.95
59831;BME280;45711;50.108;13.712;2023-04-23T02:35:08;97169.47;;;10.32;93.84
59831;BME280;45711;50.108;13.712;2023-04-23T02:37:35;97170.28;;;10.47;91.43
59831;BME280;45711;50.108;13.712;2023-04-23T02:40:02;97152.06;;;10.63;89.50
59831;BME280;45711;50.108;13.712;2023-04-23T02:42:30;97146.00;;;10.71;89.95
59831;BME280;45711;50.108;13.712;2023-04-23T02:44:55;97147.19;;;10.51;90.85
59831;BME280;45711;50.108;13.712;2023-04-23T02:47:21;97148.09;;;10.60;89.33
59831;BME280;45711;50.108;13.712;2023-04-23T02:49:48;97143.63;;;10.55;89.27
59831;BME280;45711;50.108;13.712;2023-04-23T02:52:14;97138.06;;;10.24;89.40
59831;BME280;45711;50.108;13.712;2023-04-23T02:54:40;97144.00;;;10.35;87.75
59831;BME280;45711;50.108;13.712;2023-04-23T02:57:05;97151.94;;;11.09;85.46
59831;BME280;45711;50.108;13.712;2023-04-23T02:59:31;97160.47;;;10.83;87.12
59831;BME280;45711;50.108;13.712;2023-04-23T03:01:59;97155.22;;;10.92;85.34
59831;BME280;45711;50.108;13.712;2023-04-23T03:04:25;97152.44;;;10.70;87.07
59831;BME280;45711;50.108;13.712;2023-04-23T03:06:52;97157.50;;;10.57;88.38
59831;BME280;45711;50.108;13.712;2023-04-23T03:09:18;97161.47;;;10.60;89.78
59831;BME280;45711;50.108;13.712;2023-04-23T03:11:44;97158.88;;;10.69;88.39
59831;BME280;45711;50.108;13.712;2023-04-23T03:14:09;97155.47;;;11.18;85.95
59831;BME280;45711;50.108;13.712;2023-04-23T03:16:35;97165.44;;;10.76;90.38
59831;BME280;45711;50.108;13.712;2023-04-23T03:19:01;97151.75;;;10.50;91.78
59831;BME280;45711;50.108;13.712;2023-04-23T03:21:27;97149.66;;;10.75;89.93
59831;BME280;45711;50.108;13.712;2023-04-23T03:23:54;97155.63;;;11.49;84.01
59831;BME280;45711;50.108;13.712;2023-04-23T03:26:20;97149.59;;;11.30;85.97
59831;BME280;45711;50.108;13.712;2023-04-23T03:28:46;97145.72;;;10.72;90.36
59831;BME280;45711;50.108;13.712;2023-04-23T03:31:12;97136.97;;;10.53;91.42
59831;BME280;45711;50.108;13.712;2023-04-23T03:33:37;97150.59;;;11.34;84.72
59831;BME280;45711;50.108;13.712;2023-04-23T03:36:03;97156.28;;;11.91;80.66
59831;BME280;45711;50.108;13.712;2023-04-23T03:38:29;97144.69;;;11.10;87.93
59831;BME280;45711;50.108;13.712;2023-04-23T03:40:57;97136.09;;;10.44;92.27
59831;BME280;45711;50.108;13.712;2023-04-23T03:43:25;97141.44;;;10.57;90.77
59831;BME280;45711;50.108;13.712;2023-04-23T03:45:52;97149.06;;;10.92;89.07
59831;BME280;45711;50.108;13.712;2023-04-23T03:48:17;97154.53;;;10.87;91.36
59831;BME280;45711;50.108;13.712;2023-04-23T03:50:43;97152.44;;;10.70;91.83
59831;BME280;45711;50.108;13.712;2023-04-23T03:53:12;97155.44;;;10.68;91.52
59831;BME280;45711;50.108;13.712;2023-04-23T03:55:40;97153.75;;;10.45;93.23
59831;BME280;45711;50.108;13.712;2023-04-23T03:58:07;97155.31;;;10.46;93.21
59831;BME280;45711;50.108;13.712;2023-04-23T04:00:33;97157.69;;;10.47;93.44
59831;BME280;45711;50.108;13.712;2023-04-23T04:02:59;97165.91;;;10.51;93.74
59831;BME280;45711;50.108;13.712;2023-04-23T04:05:29;97170.19;;;10.79;91.82
59831;BME280;45711;50.108;13.712;2023-04-23T04:07:54;97176.63;;;10.51;94.90
59831;BME280;45711;50.108;13.712;2023-04-23T04:10:22;97180.84;;;10.38;96.97
59831;BME280;45711;50.108;13.712;2023-04-23T04:12:48;97173.50;;;10.30;96.09
59831;BME280;45711;50.108;13.712;2023-04-23T04:15:15;97173.34;;;10.21;95.11
59831;BME280;45711;50.108;13.712;2023-04-23T04:17:41;97175.81;;;10.18;95.24
59831;BME280;45711;50.108;13.712;2023-04-23T04:20:10;97174.69;;;10.05;97.05
59831;BME280;45711;50.108;13.712;2023-04-23T04:22:36;97171.88;;;10.15;96.28
59831;BME280;45711;50.108;13.712;2023-04-23T04:25:03;97175.19;;;10.26;95.06
59831;BME280;45711;50.108;13.712;2023-04-23T04:27:29;97176.81;;;10.22;94.55
59831;BME280;45711;50.108;13.712;2023-04-23T04:29:58;97166.19;;;10.36;91.98
59831;BME280;45711;50.108;13.712;2023-04-23T04:32:25;97170.69;;;10.54;91.40
59831;BME280;45711;50.108;13.712;2023-04-23T04:34:51;97169.28;;;10.56;91.48
59831;BME280;45711;50.108;13.712;2023-04-23T04:37:16;97172.75;;;10.57;92.60
59831;BME280;45711;50.108;13.712;2023-04-23T04:39:42;97172.06;;;10.51;91.54
59831;BME280;45711;50.108;13.712;2023-04-23T04:42:08;97170.78;;;10.63;91.37
59831;BME280;45711;50.108;13.712;2023-04-23T04:44:35;97181.28;;;10.59;91.79
59831;BME280;45711;50.108;13.712;2023-04-23T04:47:01;97176.94;;;10.63;91.73
59831;BME280;45711;50.108;13.712;2023-04-23T04:49:28;97171.78;;;10.94;91.85
59831;BME280;45711;50.108;13.712;2023-04-23T04:51:54;97177.22;;;11.03;91.24
59831;BME280;45711;50.108;13.712;2023-04-23T04:54:20;97178.00;;;11.17;89.40
59831;BME280;45711;50.108;13.712;2023-04-23T04:56:46;97179.13;;;11.02;92.90
59831;BME280;45711;50.108;13.712;2023-04-23T04:59:12;97177.13;;;11.08;92.41
59831;BME280;45711;50.108;13.712;2023-04-23T05:01:37;97175.94;;;11.00;93.04
59831;BME280;45711;50.108;13.712;2023-04-23T05:04:03;97182.88;;;11.01;92.92
59831;BME280;45711;50.108;13.712;2023-04-23T05:06:31;97180.81;;;10.98;91.02
59831;BME280;45711;50.108;13.712;2023-04-23T05:08:57;97183.44;;;11.26;92.60
59831;BME280;45711;50.108;13.712;2023-04-23T05:11:23;97183.94;;;11.14;92.56
59831;BME280;45711;50.108;13.712;2023-04-23T05:13:48;97183.59;;;11.43;91.02
59831;BME280;45711;50.108;13.712;2023-04-23T05:16:14;97184.75;;;11.28;92.18
59831;BME280;45711;50.108;13.712;2023-04-23T05:18:43;97182.59;;;11.53;90.61
59831;BME280;45711;50.108;13.712;2023-04-23T05:21:09;97195.91;;;11.44;91.66
59831;BME280;45711;50.108;13.712;2023-04-23T05:23:39;97189.91;;;11.61;88.90
59831;BME280;45711;50.108;13.712;2023-04-23T05:26:05;97188.84;;;11.98;88.70
59831;BME280;45711;50.108;13.712;2023-04-23T05:28:31;97189.88;;;11.89;88.83
59831;BME280;45711;50.108;13.712;2023-04-23T05:30:56;97197.78;;;12.16;88.34
59831;BME280;45711;50.108;13.712;2023-04-23T05:33:22;97189.97;;;12.28;86.27
59831;BME280;45711;50.108;13.712;2023-04-23T05:35:48;97190.63;;;12.34;87.94
59831;BME280;45711;50.108;13.712;2023-04-23T05:38:14;97199.84;;;12.42;82.44
59831;BME280;45711;50.108;13.712;2023-04-23T05:40:41;97195.63;;;12.58;82.33
59831;BME280;45711;50.108;13.712;2023-04-23T05:43:07;97193.78;;;12.58;82.42
59831;BME280;45711;50.108;13.712;2023-04-23T05:45:41;97194.09;;;12.66;78.66
59831;BME280;45711;50.108;13.712;2023-04-23T05:48:07;97195.72;;;12.75;77.06
59831;BME280;45711;50.108;13.712;2023-04-23T05:50:33;97187.19;;;12.73;78.20
59831;BME280;45711;50.108;13.712;2023-04-23T05:52:58;97190.16;;;12.63;77.83
59831;BME280;45711;50.108;13.712;2023-04-23T05:55:24;97198.47;;;12.53;77.72
59831;BME280;45711;50.108;13.712;2023-04-23T05:57:52;97189.34;;;12.54;77.38
59831;BME280;45711;50.108;13.712;2023-04-23T06:00:17;97186.66;;;12.54;78.49
59831;BME280;45711;50.108;13.712;2023-04-23T06:02:46;97199.75;;;12.55;77.42
59831;BME280;45711;50.108;13.712;2023-04-23T06:05:12;97203.81;;;12.53;77.10
59831;BME280;45711;50.108;13.712;2023-04-23T06:07:38;97203.69;;;12.58;76.91
59831;BME280;45711;50.108;13.712;2023-04-23T06:10:05;97199.13;;;12.58;76.54
59831;BME280;45711;50.108;13.712;2023-04-23T06:12:31;97200.06;;;12.54;76.72
59831;BME280;45711;50.108;13.712;2023-04-23T06:15:22;97203.81;;;12.53;77.04
59831;BME280;45711;50.108;13.712;2023-04-23T06:17:53;97211.91;;;12.62;76.69
59831;BME280;45711;50.108;13.712;2023-04-23T06:20:21;97205.34;;;12.68;76.70
59831;BME280;45711;50.108;13.712;2023-04-23T06:22:47;97212.63;;;12.76;77.65
59831;BME280;45711;50.108;13.712;2023-04-23T06:25:17;97212.63;;;12.76;76.85
59831;BME280;45711;50.108;13.712;2023-04-23T06:27:42;97215.28;;;12.67;76.12
59831;BME280;45711;50.108;13.712;2023-04-23T06:30:21;97217.28;;;12.62;76.12
59831;BME280;45711;50.108;13.712;2023-04-23T06:32:49;97211.63;;;12.63;76.00
59831;BME280;45711;50.108;13.712;2023-04-23T06:35:15;97211.69;;;12.72;76.43
59831;BME280;45711;50.108;13.712;2023-04-23T06:37:42;97212.53;;;12.90;77.47
59831;BME280;45711;50.108;13.712;2023-04-23T06:40:09;97211.94;;;13.01;74.96
59831;BME280;45711;50.108;13.712;2023-04-23T06:42:38;97214.00;;;13.04;74.85
59831;BME280;45711;50.108;13.712;2023-04-23T06:45:06;97219.34;;;12.96;74.25
59831;BME280;45711;50.108;13.712;2023-04-23T06:47:32;97223.00;;;13.00;75.66
59831;BME280;45711;50.108;13.712;2023-04-23T06:49:59;97207.19;;;12.98;75.09
59831;BME280;45711;50.108;13.712;2023-04-23T06:52:25;97219.56;;;13.17;75.27
59831;BME280;45711;50.108;13.712;2023-04-23T06:54:56;97221.66;;;13.20;76.43
59831;BME280;45711;50.108;13.712;2023-04-23T06:57:30;97219.38;;;13.04;74.30
59831;BME280;45711;50.108;13.712;2023-04-23T06:59:56;97218.06;;;12.85;74.95
59831;BME280;45711;50.108;13.712;2023-04-23T07:02:24;97213.44;;;12.76;75.47
59831;BME280;45711;50.108;13.712;2023-04-23T07:05:02;97214.66;;;12.70;75.62
59831;BME280;45711;50.108;13.712;2023-04-23T07:07:31;97203.09;;;12.61;75.78
59831;BME280;45711;50.108;13.712;2023-04-23T07:10:00;97213.03;;;12.61;75.87
59831;BME280;45711;50.108;13.712;2023-04-23T07:12:34;97219.63;;;12.54;76.11
59831;BME280;45711;50.108;13.712;2023-04-23T07:15:00;97223.13;;;12.55;76.23
59831;BME280;45711;50.108;13.712;2023-04-23T07:17:31;97215.84;;;12.55;76.21
59831;BME280;45711;50.108;13.712;2023-04-23T07:20:00;97219.97;;;12.62;76.42
59831;BME280;45711;50.108;13.712;2023-04-23T07:22:42;97215.91;;;12.64;76.16
59831;BME280;45711;50.108;13.712;2023-04-23T07:25:22;97225.19;;;12.67;75.93
59831;BME280;45711;50.108;13.712;2023-04-23T07:27:51;97219.41;;;12.73;75.66
59831;BME280;45711;50.108;13.712;2023-04-23T07:30:37;97218.88;;;12.94;75.00
59831;BME280;45711;50.108;13.712;2023-04-23T07:33:05;97224.91;;;13.08;73.85
59831;BME280;45711;50.108;13.712;2023-04-23T07:35:31;97225.72;;;13.08;73.96
59831;BME280;45711;50.108;13.712;2023-04-23T07:38:01;97229.81;;;13.06;74.52
59831;BME280;45711;50.108;13.712;2023-04-23T07:40:32;97232.97;;;13.08;74.74
59831;BME280;45711;50.108;13.712;2023-04-23T07:43:19;97236.59;;;13.03;74.53
59831;BME280;45711;50.108;13.712;2023-04-23T07:45:47;97234.47;;;13.23;74.06
59831;BME280;45711;50.108;13.712;2023-04-23T07:48:14;97230.75;;;13.10;74.59
59831;BME280;45711;50.108;13.712;2023-04-23T07:50:41;97229.34;;;13.13;74.78
59831;BME280;45711;50.108;13.712;2023-04-23T07:53:13;97236.28;;;13.05;74.63
59831;BME280;45711;50.108;13.712;2023-04-23T07:55:41;97234.88;;;13.07;74.35
59831;BME280;45711;50.108;13.712;2023-04-23T07:58:27;97235.44;;;13.36;73.87
59831;BME280;45711;50.108;13.712;2023-04-23T08:01:11;97241.63;;;13.36;73.68
59831;BME280;45711;50.108;13.712;2023-04-23T08:03:42;97241.28;;;13.29;75.78
59831;BME280;45711;50.108;13.712;2023-04-23T08:06:12;97251.00;;;13.07;75.21
59831;BME280;45711;50.108;13.712;2023-04-23T08:08:43;97248.69;;;12.92;75.25
59831;BME280;45711;50.108;13.712;2023-04-23T08:11:11;97248.56;;;12.89;75.41
59831;BME280;45711;50.108;13.712;2023-04-23T08:13:37;97249.81;;;12.91;76.05
59831;BME280;45711;50.108;13.712;2023-04-23T08:16:07;97259.34;;;13.37;75.72
59831;BME280;45711;50.108;13.712;2023-04-23T08:18:33;97258.28;;;13.16;74.59
59831;BME280;45711;50.108;13.712;2023-04-23T08:21:00;97257.50;;;13.64;73.94
59831;BME280;45711;50.108;13.712;2023-04-23T08:23:26;97262.13;;;13.80;75.00
59831;BME280;45711;50.108;13.712;2023-04-23T08:25:56;97269.25;;;14.02;75.07
59831;BME280;45711;50.108;13.712;2023-04-23T08:28:22;97269.09;;;13.99;73.10
59831;BME280;45711;50.108;13.712;2023-04-23T08:30:48;97261.19;;;13.94;72.70
59831;BME280;45711;50.108;13.712;2023-04-23T08:33:13;97262.25;;;13.93;73.61
59831;BME280;45711;50.108;13.712;2023-04-23T08:35:39;97268.47;;;13.93;73.74
59831;BME280;45711;50.108;13.712;2023-04-23T08:38:05;97271.94;;;13.85;73.66
59831;BME280;45711;50.108;13.712;2023-04-23T08:40:31;97274.91;;;13.75;73.71
59831;BME280;45711;50.108;13.712;2023-04-23T08:43:01;97273.13;;;13.53;74.45
59831;BME280;45711;50.108;13.712;2023-04-23T08:45:28;97278.63;;;13.39;75.12
59831;BME280;45711;50.108;13.712;2023-04-23T08:48:00;97271.78;;;13.24;75.46
59831;BME280;45711;50.108;13.712;2023-04-23T08:50:28;97268.47;;;13.27;75.57
59831;BME280;45711;50.108;13.712;2023-04-23T08:52:55;97271.47;;;13.26;75.48
59831;BME280;45711;50.108;13.712;2023-04-23T08:55:38;97261.38;;;13.31;75.61
59831;BME280;45711;50.108;13.712;2023-04-23T08:58:17;97269.56;;;13.26;75.57
59831;BME280;45711;50.108;13.712;2023-04-23T09:04:22;97278.69;;;13.17;75.78
59831;BME280;45711;50.108;13.712;2023-04-23T09:07:32;97277.38;;;13.14;75.87
59831;BME280;45711;50.108;13.712;2023-04-23T09:10:05;97276.44;;;13.10;76.41
59831;BME280;45711;50.108;13.712;2023-04-23T09:12:34;97279.56;;;13.03;76.85
59831;BME280;45711;50.108;13.712;2023-04-23T09:15:02;97278.78;;;13.03;77.34
59831;BME280;45711;50.108;13.712;2023-04-23T09:17:37;97280.34;;;13.04;76.85
59831;BME280;45711;50.108;13.712;2023-04-23T09:20:05;97283.88;;;13.13;76.88
59831;BME280;45711;50.108;13.712;2023-04-23T09:22:40;97286.53;;;13.44;76.83
59831;BME280;45711;50.108;13.712;2023-04-23T09:25:06;97287.25;;;13.76;76.05
59831;BME280;45711;50.108;13.712;2023-04-23T09:27:32;97283.16;;;13.96;75.48
59831;BME280;45711;50.108;13.712;2023-04-23T09:29:59;97282.72;;;14.11;74.56
59831;BME280;45711;50.108;13.712;2023-04-23T09:32:32;97280.81;;;14.38;73.31
59831;BME280;45711;50.108;13.712;2023-04-23T09:35:01;97280.16;;;14.41;73.06
59831;BME280;45711;50.108;13.712;2023-04-23T09:37:31;97277.47;;;14.23;73.23
59831;BME280;45711;50.108;13.712;2023-04-23T09:40:09;97273.34;;;13.82;74.82
59831;BME280;45711;50.108;13.712;2023-04-23T09:42:49;97276.31;;;13.64;75.25
59831;BME280;45711;50.108;13.712;2023-04-23T09:45:23;97288.34;;;13.75;75.02
59831;BME280;45711;50.108;13.712;2023-04-23T09:48:06;97279.31;;;13.71;74.57
59831;BME280;45711;50.108;13.712;2023-04-23T09:50:44;97281.00;;;13.49;75.61
59831;BME280;45711;50.108;13.712;2023-04-23T09:53:13;97275.00;;;13.44;77.31
59831;BME280;45711;50.108;13.712;2023-04-23T09:55:47;97280.09;;;13.54;77.10
59831;BME280;45711;50.108;13.712;2023-04-23T09:58:31;97271.03;;;13.32;77.61
59831;BME280;45711;50.108;13.712;2023-04-23T10:01:05;97270.78;;;13.20;77.64
59831;BME280;45711;50.108;13.712;2023-04-23T10:03:43;97281.75;;;13.24;77.27
59831;BME280;45711;50.108;13.712;2023-04-23T10:06:18;97276.97;;;13.21;77.32
59831;BME280;45711;50.108;13.712;2023-04-23T10:08:47;97264.94;;;13.18;77.21
59831;BME280;45711;50.108;13.712;2023-04-23T10:11:12;97269.09;;;13.24;81.67
59831;BME280;45711;50.108;13.712;2023-04-23T10:13:41;97263.22;;;13.22;77.99
59831;BME280;45711;50.108;13.712;2023-04-23T10:16:10;97260.91;;;13.38;82.31
59831;BME280;45711;50.108;13.712;2023-04-23T10:18:45;97258.22;;;13.29;81.79
59831;BME280;45711;50.108;13.712;2023-04-23T10:21:15;97261.25;;;13.37;79.23
59831;BME280;45711;50.108;13.712;2023-04-23T10:23:43;97245.41;;;13.35;83.08
59831;BME280;45711;50.108;13.712;2023-04-23T10:26:19;97236.75;;;13.47;80.54
59831;BME280;45711;50.108;13.712;2023-04-23T10:28:49;97233.44;;;13.41;83.26
59831;BME280;45711;50.108;13.712;2023-04-23T10:31:34;97233.44;;;13.50;81.03
59831;BME280;45711;50.108;13.712;2023-04-23T10:34:03;97222.81;;;13.36;82.30
59831;BME280;45711;50.108;13.712;2023-04-23T10:36:34;97226.81;;;13.56;84.26
59831;BME280;45711;50.108;13.712;2023-04-23T10:39:03;97241.03;;;13.48;80.64
59831;BME280;45711;50.108;13.712;2023-04-23T10:41:44;97257.16;;;13.56;82.57
59831;BME280;45711;50.108;13.712;2023-04-23T10:44:40;97254.47;;;13.48;77.59
59831;BME280;45711;50.108;13.712;2023-04-23T10:47:24;97266.66;;;13.54;83.72
59831;BME280;45711;50.108;13.712;2023-04-23T10:49:52;97264.25;;;13.44;77.69
59831;BME280;45711;50.108;13.712;2023-04-23T10:52:19;97253.81;;;13.42;82.97
59831;BME280;45711;50.108;13.712;2023-04-23T10:54:56;97256.03;;;13.49;78.40
59831;BME280;45711;50.108;13.712;2023-04-23T10:57:55;97259.03;;;13.47;78.04
59831;BME280;45711;50.108;13.712;2023-04-23T11:00:25;97254.94;;;13.50;78.04
59831;BME280;45711;50.108;13.712;2023-04-23T11:02:51;97262.38;;;13.62;81.00
59831;BME280;45711;50.108;13.712;2023-04-23T11:05:28;97258.59;;;13.45;78.49
59831;BME280;45711;50.108;13.712;2023-04-23T11:08:06;97256.38;;;13.56;81.53
59831;BME280;45711;50.108;13.712;2023-04-23T11:10:56;97252.25;;;13.50;82.92
59831;BME280;45711;50.108;13.712;2023-04-23T11:13:29;97257.91;;;13.40;78.83
59831;BME280;45711;50.108;13.712;2023-04-23T11:16:22;97259.38;;;13.54;82.72
59831;BME280;45711;50.108;13.712;2023-04-23T11:18:58;97255.28;;;13.66;82.93
59831;BME280;45711;50.108;13.712;2023-04-23T11:22:03;97256.75;;;13.80;81.93
59831;BME280;45711;50.108;13.712;2023-04-23T11:24:31;97251.66;;;13.88;81.88
59831;BME280;45711;50.108;13.712;2023-04-23T11:27:00;97246.13;;;13.75;78.02
59831;BME280;45711;50.108;13.712;2023-04-23T11:29:33;97253.41;;;13.83;80.65
59831;BME280;45711;50.108;13.712;2023-04-23T11:31:59;97251.50;;;13.93;80.21
59831;BME280;45711;50.108;13.712;2023-04-23T11:34:42;97259.75;;;13.96;83.14
59831;BME280;45711;50.108;13.712;2023-04-23T11:37:14;97262.13;;;14.06;81.04
59831;BME280;45711;50.108;13.712;2023-04-23T11:39:45;97258.78;;;14.09;81.38
59831;BME280;45711;50.108;13.712;2023-04-23T11:42:16;97259.44;;;14.15;82.68
59831;BME280;45711;50.108;13.712;2023-04-23T11:44:49;97247.41;;;13.95;80.29
59831;BME280;45711;50.108;13.712;2023-04-23T11:47:15;97245.34;;;13.92;82.32
59831;BME280;45711;50.108;13.712;2023-04-23T11:49:42;97252.47;;;14.05;78.57
59831;BME280;45711;50.108;13.712;2023-04-23T11:52:16;97242.97;;;13.99;77.40
59831;BME280;45711;50.108;13.712;2023-04-23T11:54:47;97237.28;;;13.92;79.93
59831;BME280;45711;50.108;13.712;2023-04-23T11:57:18;97241.56;;;13.93;81.80
59831;BME280;45711;50.108;13.712;2023-04-23T12:00:10;97239.78;;;13.80;78.04
59831;BME280;45711;50.108;13.712;2023-04-23T12:02:48;97246.75;;;13.64;80.55
59831;BME280;45711;50.108;13.712;2023-04-23T12:05:14;97246.41;;;13.56;78.24
59831;BME280;45711;50.108;13.712;2023-04-23T12:07:47;97244.22;;;13.58;80.37
59831;BME280;45711;50.108;13.712;2023-04-23T12:10:18;97252.56;;;13.48;78.28
59831;BME280;45711;50.108;13.712;2023-04-23T12:12:50;97243.09;;;13.60;81.05
59831;BME280;45711;50.108;13.712;2023-04-23T12:15:16;97249.72;;;13.62;78.91
59831;BME280;45711;50.108;13.712;2023-04-23T12:17:47;97242.31;;;13.50;82.05
59831;BME280;45711;50.108;13.712;2023-04-23T12:20:18;97241.03;;;13.56;80.43
59831;BME280;45711;50.108;13.712;2023-04-23T12:22:51;97242.47;;;13.54;80.88
59831;BME280;45711;50.108;13.712;2023-04-23T12:25:21;97234.09;;;13.64;83.30
59831;BME280;45711;50.108;13.712;2023-04-23T12:27:50;97243.41;;;13.58;79.60
59831;BME280;45711;50.108;13.712;2023-04-23T12:30:18;97232.34;;;13.51;80.86
59831;BME280;45711;50.108;13.712;2023-04-23T12:32:45;97247.81;;;13.45;79.19
59831;BME280;45711;50.108;13.712;2023-04-23T12:35:14;97240.53;;;13.37;82.24
59831;BME280;45711;50.108;13.712;2023-04-23T12:37:40;97241.31;;;13.38;78.77
59831;BME280;45711;50.108;13.712;2023-04-23T12:40:27;97235.09;;;13.20;79.56
59831;BME280;45711;50.108;13.712;2023-04-23T12:42:55;97241.06;;;13.17;78.72
59831;BME280;45711;50.108;13.712;2023-04-23T12:45:21;97245.56;;;13.30;78.37
59831;BME280;45711;50.108;13.712;2023-04-23T12:47:46;97241.63;;;13.36;77.71
59831;BME280;45711;50.108;13.712;2023-04-23T12:50:20;97245.41;;;13.35;84.12
59831;BME280;45711;50.108;13.712;2023-04-23T12:52:53;97239.41;;;13.29;85.21
59831;BME280;45711;50.108;13.712;2023-04-23T12:55:23;97238.84;;;13.19;86.73
59831;BME280;45711;50.108;13.712;2023-04-23T12:57:49;97244.06;;;13.15;87.67
59831;BME280;45711;50.108;13.712;2023-04-23T13:00:16;97232.31;;;13.33;81.75
59831;BME280;45711;50.108;13.712;2023-04-23T13:02:41;97235.44;;;13.27;81.43
59831;BME280;45711;50.108;13.712;2023-04-23T13:05:10;97229.63;;;13.33;85.09